Time;durP1;ratioP1;P1;durP2;ratioP2;P2;SDS_P1;SDS_P2;PMS_P1;PMS_P2;Temp;Humidity;BMP_temperature;BMP_pressure;BME280_temperature;BME280_humidity;BME280_pressure;Samples;Min_cycle;Max_cycle;Signal;HPM_P1;HPM_P2
2021/07/26 11:09:43;;;;;;;3.53;2.13;;;;;;;;;;4859081;29;20068;-66
2021/07/26 11:12:09;;;;;;;2.80;2.40;;;;;;;;;;4856880;29;20085;-66
2021/07/26 11:14:36;;;;;;;2.85;2.38;;;;;;;;;;4824995;29;20054;-66
2021/07/26 11:17:05;;;;;;;3.50;2.70;;;;;;;;;;4841654;29;20073;-65
2021/07/26 11:19:41;;;;;;;4.38;2.80;;;;;;;;;;4841212;29;20093;-65
2021/07/26 11:22:17;;;;;;;2.95;2.03;;;;;;;;;;4845699;29;20081;-65
2021/07/26 11:24:46;;;;;;;2.53;2.17;;;;;;;;;;4855496;29;20109;-65
2021/07/26 11:27:37;;;;;;;3.03;2.53;;;;;;;;;;4860165;29;20095;-65
2021/07/26 11:30:04;;;;;;;3.00;2.28;;;;;;;;;;4856591;29;20117;-65
2021/07/26 11:32:31;;;;;;;3.10;2.58;;;;;;;;;;4857537;29;20092;-65
2021/07/26 11:34:59;;;;;;;3.97;2.47;;;;;;;;;;4859818;29;20484;-66
2021/07/26 11:37:35;;;;;;;3.55;2.42;;;;;;;;;;4859771;29;20136;-65
2021/07/26 11:40:09;;;;;;;2.53;2.33;;;;;;;;;;4859785;29;20476;-65
2021/07/26 11:42:37;;;;;;;4.63;2.63;;;;;;;;;;4842732;29;20061;-65
2021/07/26 11:45:12;;;;;;;3.88;2.20;;;;;;;;;;4867137;24;20061;-65
2021/07/26 11:47:43;;;;;;;2.88;2.28;;;;;;;;;;4882925;29;20463;-65
2021/07/26 11:50:13;;;;;;;4.30;2.30;;;;;;;;;;4898568;29;20095;-65
2021/07/26 11:52:56;;;;;;;3.33;2.40;;;;;;;;;;4881896;29;20080;-68
2021/07/26 11:55:29;;;;;;;2.67;2.30;;;;;;;;;;4878962;29;20564;-67
2021/07/26 11:57:58;;;;;;;3.13;2.45;;;;;;;;;;4879135;29;20084;-67
2021/07/26 12:00:37;;;;;;;3.28;2.17;;;;;;;;;;4880096;29;20053;-67
2021/07/26 12:03:04;;;;;;;4.63;2.20;;;;;;;;;;4864523;29;20527;-68
2021/07/26 12:05:32;;;;;;;3.25;2.47;;;;;;;;;;4879103;29;20114;-68
2021/07/26 12:07:59;;;;;;;3.72;2.67;;;;;;;;;;4876412;29;20053;-71
2021/07/26 12:10:36;;;;;;;2.45;1.98;;;;;;;;;;4888866;29;20479;-69
2021/07/26 12:13:16;;;;;;;2.90;1.90;;;;;;;;;;4882996;29;20056;-69
2021/07/26 12:15:44;;;;;;;3.15;1.52;;;;;;;;;;4890300;29;20080;-70
2021/07/26 12:18:34;;;;;;;3.38;2.05;;;;;;;;;;4873685;29;20045;-68
2021/07/26 12:21:02;;;;;;;3.45;1.80;;;;;;;;;;4884564;29;20056;-67
2021/07/26 12:23:32;;;;;;;2.72;1.90;;;;;;;;;;4883242;29;20081;-68
2021/07/26 12:25:59;;;;;;;5.75;2.13;;;;;;;;;;4900624;29;20084;-68
2021/07/26 12:28:43;;;;;;;7.10;2.17;;;;;;;;;;4886757;29;20056;-68
2021/07/26 12:31:43;;;;;;;2.80;1.77;;;;;;;;;;4871224;29;20056;-68
2021/07/26 12:34:18;;;;;;;5.88;2.00;;;;;;;;;;4857734;29;20053;-68
2021/07/26 12:36:45;;;;;;;3.15;2.13;;;;;;;;;;4872622;29;20067;-68
2021/07/26 12:39:12;;;;;;;4.03;2.20;;;;;;;;;;4884139;29;20053;-68
2021/07/26 12:41:40;;;;;;;5.80;2.47;;;;;;;;;;4887065;29;20074;-68
2021/07/26 12:44:18;;;;;;;4.18;2.10;;;;;;;;;;4888475;29;20049;-67
2021/07/26 12:46:52;;;;;;;4.70;2.05;;;;;;;;;;4883818;29;20449;-68
2021/07/26 12:49:24;;;;;;;4.53;1.90;;;;;;;;;;4873773;29;20053;-67
2021/07/26 12:51:56;;;;;;;2.03;1.67;;;;;;;;;;4883452;29;20408;-67
2021/07/26 12:54:23;;;;;;;6.25;1.75;;;;;;;;;;4883247;29;20092;-67
2021/07/26 12:56:50;;;;;;;2.40;1.65;;;;;;;;;;4885797;29;20088;-67
2021/07/26 12:59:17;;;;;;;2.15;1.95;;;;;;;;;;4887047;29;20053;-68
2021/07/26 13:01:50;;;;;;;5.63;2.20;;;;;;;;;;4885070;29;20076;-68
2021/07/26 13:04:17;;;;;;;2.40;1.70;;;;;;;;;;4885128;29;20108;-68
2021/07/26 13:06:44;;;;;;;3.63;1.80;;;;;;;;;;4885760;29;20053;-68
2021/07/26 13:09:10;;;;;;;3.47;1.73;;;;;;;;;;4884022;29;20105;-68
2021/07/26 13:11:37;;;;;;;2.42;1.63;;;;;;;;;;4888470;29;20072;-68
2021/07/26 13:14:03;;;;;;;1.75;1.65;;;;;;;;;;4885336;29;20402;-67
2021/07/26 13:16:30;;;;;;;2.67;1.50;;;;;;;;;;4884798;29;20071;-68
2021/07/26 13:18:57;;;;;;;1.73;1.50;;;;;;;;;;4882903;29;20116;-67
2021/07/26 13:21:23;;;;;;;1.50;1.40;;;;;;;;;;4883550;29;20496;-67
2021/07/26 13:23:50;;;;;;;3.97;2.10;;;;;;;;;;4884353;29;20060;-67
2021/07/26 13:26:18;;;;;;;3.10;1.48;;;;;;;;;;4884060;29;20139;-69
2021/07/26 13:28:45;;;;;;;2.10;1.30;;;;;;;;;;4885697;29;20080;-70
2021/07/26 13:31:12;;;;;;;1.58;1.40;;;;;;;;;;4884536;29;20080;-71
2021/07/26 13:33:38;;;;;;;3.83;1.73;;;;;;;;;;4883386;29;20052;-72
2021/07/26 13:36:06;;;;;;;1.95;1.50;;;;;;;;;;4924017;23;20115;-71
2021/07/26 13:38:32;;;;;;;1.40;1.30;;;;;;;;;;4886805;29;20408;-71
2021/07/26 13:40:59;;;;;;;2.35;1.50;;;;;;;;;;4870403;29;20053;-69
2021/07/26 13:43:26;;;;;;;1.80;1.55;;;;;;;;;;4901497;29;20593;-71
2021/07/26 13:45:53;;;;;;;1.85;1.55;;;;;;;;;;4896536;29;20088;-72
2021/07/26 13:48:19;;;;;;;3.25;1.65;;;;;;;;;;4900769;29;20052;-70
2021/07/26 13:50:46;;;;;;;4.85;1.70;;;;;;;;;;4903041;29;20177;-69
2021/07/26 13:53:13;;;;;;;1.42;1.27;;;;;;;;;;4869906;29;20508;-69
2021/07/26 13:55:39;;;;;;;4.65;2.13;;;;;;;;;;4904208;29;20099;-71
2021/07/26 13:58:06;;;;;;;3.42;1.63;;;;;;;;;;4903217;29;20049;-72
2021/07/26 14:00:35;;;;;;;4.25;1.77;;;;;;;;;;4908055;29;20075;-72
2021/07/26 14:03:05;;;;;;;2.30;1.50;;;;;;;;;;4900170;29;20123;-74
2021/07/26 14:05:41;;;;;;;1.75;1.23;;;;;;;;;;4902799;29;20145;-74
2021/07/26 14:08:08;;;;;;;4.88;1.77;;;;;;;;;;4899857;29;20119;-72
2021/07/26 14:10:35;;;;;;;2.33;1.83;;;;;;;;;;4906331;29;20133;-76
2021/07/26 14:13:02;;;;;;;3.83;2.30;;;;;;;;;;4906827;29;20452;-74
2021/07/26 14:15:28;;;;;;;3.95;2.40;;;;;;;;;;4888860;29;20500;-73
2021/07/26 14:17:55;;;;;;;5.40;2.70;;;;;;;;;;4905584;29;20052;-74
2021/07/26 14:20:22;;;;;;;4.15;2.42;;;;;;;;;;4905379;29;20088;-69
2021/07/26 14:22:48;;;;;;;3.03;2.13;;;;;;;;;;4906912;29;20508;-69
2021/07/26 14:25:15;;;;;;;2.90;2.05;;;;;;;;;;4905154;29;20396;-71
2021/07/26 14:27:41;;;;;;;3.10;1.90;;;;;;;;;;4906919;29;20074;-75
2021/07/26 14:30:09;;;;;;;3.80;2.17;;;;;;;;;;4888780;29;20056;-71
2021/07/26 14:32:36;;;;;;;3.10;2.40;;;;;;;;;;4908712;29;20108;-70
2021/07/26 14:35:04;;;;;;;3.03;2.50;;;;;;;;;;4903817;29;20397;-71
2021/07/26 14:37:31;;;;;;;4.60;2.78;;;;;;;;;;4907576;29;20049;-71
2021/07/26 14:39:58;;;;;;;2.60;2.40;;;;;;;;;;4888501;29;20511;-72
2021/07/26 14:42:24;;;;;;;4.20;2.60;;;;;;;;;;4892792;29;20052;-70
2021/07/26 14:44:52;;;;;;;3.85;2.78;;;;;;;;;;4903692;29;20056;-70
2021/07/26 14:47:21;;;;;;;3.15;2.67;;;;;;;;;;4905451;29;20543;-70
2021/07/26 14:49:47;;;;;;;4.03;2.83;;;;;;;;;;4903795;29;20062;-70
2021/07/26 14:52:14;;;;;;;7.82;4.28;;;;;;;;;;4905247;29;20498;-71
2021/07/26 14:54:41;;;;;;;5.90;2.83;;;;;;;;;;4907905;29;20800;-71
2021/07/26 14:57:07;;;;;;;8.25;3.13;;;;;;;;;;4905838;29;20102;-70
2021/07/26 14:59:34;;;;;;;4.82;3.50;;;;;;;;;;4905905;29;20099;-71
2021/07/26 15:02:02;;;;;;;7.82;3.50;;;;;;;;;;4888746;29;20108;-72
2021/07/26 15:04:29;;;;;;;3.47;2.83;;;;;;;;;;4889456;29;20053;-72
2021/07/26 15:06:55;;;;;;;6.35;3.47;;;;;;;;;;4906132;29;20119;-73
2021/07/26 15:09:22;;;;;;;6.20;3.78;;;;;;;;;;4909150;29;20088;-71
2021/07/26 15:11:48;;;;;;;5.40;3.53;;;;;;;;;;4904373;29;20090;-71
2021/07/26 15:14:15;;;;;;;7.68;4.10;;;;;;;;;;4906874;29;20044;-72
2021/07/26 15:16:44;;;;;;;6.35;3.50;;;;;;;;;;4904251;29;20049;-70
2021/07/26 15:19:10;;;;;;;7.20;3.83;;;;;;;;;;4905016;29;20052;-71
2021/07/26 15:21:37;;;;;;;8.38;4.05;;;;;;;;;;4904145;29;20087;-70
2021/07/26 15:24:05;;;;;;;6.28;3.30;;;;;;;;;;4903509;29;20107;-71
2021/07/26 15:26:32;;;;;;;4.53;3.28;;;;;;;;;;4888436;29;20080;-70
2021/07/26 15:28:58;;;;;;;3.67;3.15;;;;;;;;;;4907049;29;20093;-68
2021/07/26 15:31:25;;;;;;;6.13;3.90;;;;;;;;;;4905809;29;20136;-71
2021/07/26 15:33:52;;;;;;;3.65;3.30;;;;;;;;;;4903589;29;20142;-70
2021/07/26 15:36:18;;;;;;;5.13;3.70;;;;;;;;;;4903301;29;20059;-70
2021/07/26 15:38:45;;;;;;;5.32;3.92;;;;;;;;;;4903184;29;20055;-67
2021/07/26 15:41:12;;;;;;;6.18;3.83;;;;;;;;;;4905706;29;20087;-66
2021/07/26 15:43:40;;;;;;;7.57;4.10;;;;;;;;;;4905565;29;20085;-66
2021/07/26 15:46:07;;;;;;;8.57;4.57;;;;;;;;;;4906567;29;20587;-71
2021/07/26 15:48:34;;;;;;;4.15;3.75;;;;;;;;;;4883457;29;20506;-71
2021/07/26 15:51:02;;;;;;;6.05;4.32;;;;;;;;;;4888827;29;20064;-72
2021/07/26 15:53:28;;;;;;;7.60;4.18;;;;;;;;;;4902487;29;20143;-72
2021/07/26 15:55:55;;;;;;;6.05;3.55;;;;;;;;;;4903785;29;20145;-70
2021/07/26 15:58:22;;;;;;;6.45;4.03;;;;;;;;;;4903666;29;20095;-71
2021/07/26 16:00:48;;;;;;;5.90;4.47;;;;;;;;;;4904168;29;20075;-74
2021/07/26 16:03:15;;;;;;;7.53;3.88;;;;;;;;;;4903987;29;20059;-72
2021/07/26 16:05:42;;;;;;;6.60;4.43;;;;;;;;;;4902942;29;20052;-73
2021/07/26 16:08:09;;;;;;;6.00;4.60;;;;;;;;;;4903911;29;20048;-73
2021/07/26 16:10:37;;;;;;;7.57;4.72;;;;;;;;;;4903260;29;20052;-70
2021/07/26 16:13:04;;;;;;;7.50;4.90;;;;;;;;;;4903148;29;20476;-69
2021/07/26 16:15:31;;;;;;;7.85;4.93;;;;;;;;;;4902359;29;20620;-69
2021/07/26 16:17:58;;;;;;;7.32;5.03;;;;;;;;;;4905408;29;20549;-68
2021/07/26 16:20:25;;;;;;;5.35;4.15;;;;;;;;;;4902215;29;20148;-70
2021/07/26 16:22:51;;;;;;;8.73;4.13;;;;;;;;;;4906977;29;20489;-70
2021/07/26 16:25:18;;;;;;;8.48;4.60;;;;;;;;;;4899300;29;20080;-69
2021/07/26 16:27:44;;;;;;;5.35;4.22;;;;;;;;;;4906522;29;20511;-72
2021/07/26 16:30:14;;;;;;;7.07;4.43;;;;;;;;;;4901241;29;20086;-71
2021/07/26 16:32:45;;;;;;;7.75;4.38;;;;;;;;;;4903571;29;20400;-77
2021/07/26 16:35:12;;;;;;;4.82;3.50;;;;;;;;;;4901547;29;20057;-74
2021/07/26 16:37:39;;;;;;;7.50;4.28;;;;;;;;;;4902617;29;20495;-70
2021/07/26 16:40:07;;;;;;;6.93;4.22;;;;;;;;;;4887405;29;20098;-71
2021/07/26 16:42:34;;;;;;;6.32;4.47;;;;;;;;;;4903510;29;20084;-71
2021/07/26 16:45:01;;;;;;;6.70;4.78;;;;;;;;;;4902458;29;20052;-69
2021/07/26 16:47:27;;;;;;;5.13;3.78;;;;;;;;;;4901807;29;20084;-66
2021/07/26 16:49:54;;;;;;;5.80;3.92;;;;;;;;;;4903560;29;20468;-69
2021/07/26 16:52:20;;;;;;;5.38;4.15;;;;;;;;;;4902865;29;20520;-69
2021/07/26 16:54:48;;;;;;;6.03;4.05;;;;;;;;;;4902427;29;20156;-68
2021/07/26 16:57:14;;;;;;;5.03;4.18;;;;;;;;;;4899690;29;20140;-68
2021/07/26 16:59:41;;;;;;;5.28;3.53;;;;;;;;;;4900781;29;20080;-68
2021/07/26 17:02:07;;;;;;;4.80;3.72;;;;;;;;;;4900332;29;20110;-68
2021/07/26 17:04:34;;;;;;;5.63;3.63;;;;;;;;;;4902283;29;20138;-68
2021/07/26 17:07:01;;;;;;;6.38;4.55;;;;;;;;;;4899610;29;20053;-68
2021/07/26 17:09:27;;;;;;;6.03;4.45;;;;;;;;;;4900690;29;20169;-68
2021/07/26 17:11:54;;;;;;;5.35;4.18;;;;;;;;;;4900229;29;20084;-68
2021/07/26 17:14:21;;;;;;;4.68;4.18;;;;;;;;;;4901831;29;20048;-68
2021/07/26 17:16:49;;;;;;;6.95;5.05;;;;;;;;;;4898308;29;20085;-68
2021/07/26 17:19:20;;;;;;;5.93;3.97;;;;;;;;;;4900305;29;20207;-68
2021/07/26 17:21:47;;;;;;;4.40;3.95;;;;;;;;;;4901247;29;20080;-68
2021/07/26 17:24:14;;;;;;;7.38;4.50;;;;;;;;;;4902057;29;20099;-68
2021/07/26 17:26:40;;;;;;;8.80;4.32;;;;;;;;;;4901896;29;20048;-68
2021/07/26 17:29:07;;;;;;;7.55;3.80;;;;;;;;;;4899695;29;20094;-68
2021/07/26 17:31:34;;;;;;;6.05;4.65;;;;;;;;;;4897733;29;20084;-67
2021/07/26 17:34:02;;;;;;;7.03;3.70;;;;;;;;;;4902765;29;20504;-69
2021/07/26 17:36:35;;;;;;;5.28;3.80;;;;;;;;;;4884327;29;20084;-68
2021/07/26 17:39:05;;;;;;;5.00;4.10;;;;;;;;;;4898999;29;20049;-68
2021/07/26 17:41:32;;;;;;;5.10;3.75;;;;;;;;;;4903417;29;20098;-70
2021/07/26 17:43:59;;;;;;;5.00;3.72;;;;;;;;;;4897841;29;20044;-69
2021/07/26 17:46:25;;;;;;;5.28;3.38;;;;;;;;;;4901801;29;20508;-69
2021/07/26 17:48:56;;;;;;;5.28;3.85;;;;;;;;;;4903035;29;20056;-68
2021/07/26 17:51:22;;;;;;;8.57;4.32;;;;;;;;;;4881822;29;20118;-68
2021/07/26 17:53:49;;;;;;;5.93;3.58;;;;;;;;;;4903083;29;20136;-67
2021/07/26 17:56:15;;;;;;;4.95;3.55;;;;;;;;;;4932736;23;20080;-68
2021/07/26 17:58:59;;;;;;;5.20;3.90;;;;;;;;;;4898711;29;20500;-68
2021/07/26 18:01:26;;;;;;;8.60;3.78;;;;;;;;;;4900766;29;20055;-68
2021/07/26 18:03:54;;;;;;;5.13;3.70;;;;;;;;;;4899622;29;20178;-69
2021/07/26 18:06:21;;;;;;;8.38;4.25;;;;;;;;;;4901458;29;20052;-67
2021/07/26 18:08:48;;;;;;;7.22;4.07;;;;;;;;;;4894373;29;20052;-68
2021/07/26 18:11:14;;;;;;;5.55;3.80;;;;;;;;;;4905172;29;20044;-68
2021/07/26 18:13:43;;;;;;;6.07;3.55;;;;;;;;;;4899177;29;20072;-68
2021/07/26 18:16:11;;;;;;;4.47;3.50;;;;;;;;;;4899787;29;20111;-68
2021/07/26 18:18:38;;;;;;;6.13;3.53;;;;;;;;;;4868063;29;20053;-67
2021/07/26 18:21:05;;;;;;;5.03;3.17;;;;;;;;;;4900755;29;20571;-67
2021/07/26 18:23:33;;;;;;;9.52;6.05;;;;;;;;;;4900609;29;20474;-68
2021/07/26 18:26:00;;;;;;;6.28;4.38;;;;;;;;;;4900759;29;20060;-68
2021/07/26 18:28:26;;;;;;;4.07;3.67;;;;;;;;;;4900093;29;20048;-69
2021/07/26 18:30:54;;;;;;;10.60;4.10;;;;;;;;;;4899797;29;20171;-69
2021/07/26 18:33:22;;;;;;;8.57;4.93;;;;;;;;;;4900495;29;20052;-69
2021/07/26 18:35:49;;;;;;;6.72;4.40;;;;;;;;;;4882519;29;20045;-69
2021/07/26 18:38:15;;;;;;;8.25;4.70;;;;;;;;;;4900737;29;20128;-69
2021/07/26 18:40:42;;;;;;;8.35;4.60;;;;;;;;;;4895312;29;20052;-70
2021/07/26 18:43:09;;;;;;;7.32;4.05;;;;;;;;;;4901820;29;20052;-69
2021/07/26 18:45:36;;;;;;;5.78;4.28;;;;;;;;;;4882518;29;20076;-69
2021/07/26 18:48:03;;;;;;;11.23;4.13;;;;;;;;;;4899849;29;20088;-67
2021/07/26 18:50:29;;;;;;;5.85;4.57;;;;;;;;;;4898562;29;20153;-68
2021/07/26 18:52:59;;;;;;;8.38;4.22;;;;;;;;;;4902313;29;20058;-69
2021/07/26 18:55:25;;;;;;;7.78;4.80;;;;;;;;;;4898019;29;20080;-68
2021/07/26 18:57:52;;;;;;;9.30;4.55;;;;;;;;;;4900228;29;20143;-69
2021/07/26 19:00:19;;;;;;;5.88;4.47;;;;;;;;;;4902336;29;20083;-69
2021/07/26 19:02:45;;;;;;;6.78;4.78;;;;;;;;;;4903897;29;20100;-69
2021/07/26 19:05:12;;;;;;;7.38;5.28;;;;;;;;;;4905664;29;20103;-69
2021/07/26 19:07:39;;;;;;;7.32;4.50;;;;;;;;;;4901834;29;20076;-69
2021/07/26 19:10:07;;;;;;;6.32;5.07;;;;;;;;;;4902814;29;20051;-64
2021/07/26 19:12:34;;;;;;;8.07;4.45;;;;;;;;;;4883127;29;20131;-65
2021/07/26 19:15:02;;;;;;;8.43;4.68;;;;;;;;;;4903124;29;20449;-66
2021/07/26 19:17:28;;;;;;;6.38;4.53;;;;;;;;;;4900414;29;20100;-66
2021/07/26 19:19:55;;;;;;;6.10;4.63;;;;;;;;;;4902738;29;20156;-66
2021/07/26 19:22:21;;;;;;;6.55;4.78;;;;;;;;;;4904420;29;20084;-65
2021/07/26 19:24:49;;;;;;;7.97;4.90;;;;;;;;;;4901981;29;20044;-66
2021/07/26 19:27:30;;;;;;;7.40;5.40;;;;;;;;;;4924535;23;20087;-68
2021/07/26 19:29:56;;;;;;;8.98;5.68;;;;;;;;;;4896230;29;20460;-70
2021/07/26 19:32:23;;;;;;;8.52;4.82;;;;;;;;;;4883424;29;20527;-70
2021/07/26 19:34:50;;;;;;;6.28;4.82;;;;;;;;;;4897057;29;20053;-70
2021/07/26 19:37:17;;;;;;;7.53;4.47;;;;;;;;;;4895948;29;20092;-70
2021/07/26 19:39:43;;;;;;;6.90;4.35;;;;;;;;;;4896146;29;20119;-70
2021/07/26 19:42:11;;;;;;;9.00;4.60;;;;;;;;;;4897024;29;20061;-71
2021/07/26 19:44:40;;;;;;;6.43;4.70;;;;;;;;;;4895748;29;20053;-70
2021/07/26 19:47:07;;;;;;;8.20;4.90;;;;;;;;;;4898977;29;20439;-70
2021/07/26 19:49:34;;;;;;;8.38;5.13;;;;;;;;;;4898832;29;20120;-71
2021/07/26 19:52:00;;;;;;;7.40;4.65;;;;;;;;;;4881974;29;20069;-71
2021/07/26 19:54:27;;;;;;;7.78;4.63;;;;;;;;;;4879925;29;20092;-70
2021/07/26 19:56:54;;;;;;;5.55;4.32;;;;;;;;;;4880006;29;20127;-70
2021/07/26 19:59:23;;;;;;;7.70;5.28;;;;;;;;;;4878276;29;20053;-70
2021/07/26 20:01:50;;;;;;;6.97;4.55;;;;;;;;;;4898810;29;20123;-71
2021/07/26 20:04:16;;;;;;;8.00;4.47;;;;;;;;;;4898591;29;20099;-71
2021/07/26 20:06:43;;;;;;;5.15;4.15;;;;;;;;;;4898392;29;20461;-71
2021/07/26 20:09:11;;;;;;;7.25;3.70;;;;;;;;;;4898674;29;20140;-71
2021/07/26 20:11:37;;;;;;;4.30;3.90;;;;;;;;;;4897229;29;20053;-71
2021/07/26 20:14:04;;;;;;;6.18;3.67;;;;;;;;;;4879967;29;20471;-70
2021/07/26 20:16:34;;;;;;;4.72;3.63;;;;;;;;;;4874618;29;20053;-71
2021/07/26 20:19:04;;;;;;;4.88;3.40;;;;;;;;;;4876831;29;20049;-70
2021/07/26 20:21:31;;;;;;;8.27;4.03;;;;;;;;;;4876885;29;20061;-70
2021/07/26 20:23:58;;;;;;;5.28;3.85;;;;;;;;;;4879880;29;20109;-71
2021/07/26 20:26:25;;;;;;;7.13;3.78;;;;;;;;;;4890664;29;20057;-71
2021/07/26 20:28:51;;;;;;;4.78;4.07;;;;;;;;;;4897989;29;20052;-70
2021/07/26 20:31:21;;;;;;;5.75;4.00;;;;;;;;;;4881388;29;20144;-70
2021/07/26 20:33:48;;;;;;;7.97;4.10;;;;;;;;;;4879207;29;20072;-70
2021/07/26 20:36:15;;;;;;;5.20;3.92;;;;;;;;;;4879473;29;20277;-70
2021/07/26 20:38:41;;;;;;;8.75;4.20;;;;;;;;;;4896832;29;20087;-71
2021/07/26 20:41:08;;;;;;;8.93;3.28;;;;;;;;;;4883750;29;20056;-70
2021/07/26 20:43:34;;;;;;;11.02;4.10;;;;;;;;;;4879348;29;20489;-70
2021/07/26 20:46:21;;;;;;;6.63;2.80;;;;;;;;;;4886561;29;20054;-70
2021/07/26 20:48:47;;;;;;;6.55;2.38;;;;;;;;;;4897684;29;20056;-71
2021/07/26 20:51:14;;;;;;;3.70;2.05;;;;;;;;;;4893136;29;20135;-70
2021/07/26 20:53:40;;;;;;;3.25;1.90;;;;;;;;;;4879004;29;20095;-71
2021/07/26 20:56:07;;;;;;;5.72;2.03;;;;;;;;;;4879139;29;20117;-71
2021/07/26 20:58:34;;;;;;;5.38;2.10;;;;;;;;;;4889601;29;20080;-71
2021/07/26 21:01:01;;;;;;;7.50;2.35;;;;;;;;;;4883936;29;20484;-71
2021/07/26 21:03:28;;;;;;;4.78;2.15;;;;;;;;;;4878781;29;20057;-70
2021/07/26 21:05:54;;;;;;;7.28;2.35;;;;;;;;;;4877666;29;20088;-70
2021/07/26 21:08:21;;;;;;;4.43;1.90;;;;;;;;;;4878951;29;20077;-70
2021/07/26 21:10:48;;;;;;;8.43;2.20;;;;;;;;;;4878716;29;20088;-70
2021/07/26 21:13:14;;;;;;;6.65;1.92;;;;;;;;;;4893213;29;20147;-70
2021/07/26 21:15:55;;;;;;;6.18;2.20;;;;;;;;;;4893096;29;20081;-70
2021/07/26 21:18:21;;;;;;;6.50;2.03;;;;;;;;;;4890756;29;20534;-70
2021/07/26 21:20:48;;;;;;;6.72;2.05;;;;;;;;;;4882557;29;20088;-70
2021/07/26 21:23:14;;;;;;;3.35;2.22;;;;;;;;;;4874346;29;20083;-70
2021/07/26 21:25:41;;;;;;;4.53;2.22;;;;;;;;;;4878476;29;20057;-70
2021/07/26 21:28:08;;;;;;;5.30;2.45;;;;;;;;;;4876876;29;20568;-70
2021/07/26 21:30:36;;;;;;;6.40;2.83;;;;;;;;;;4878428;29;20053;-70
2021/07/26 21:33:04;;;;;;;5.47;2.25;;;;;;;;;;4878198;29;20581;-70
2021/07/26 21:35:31;;;;;;;5.60;2.78;;;;;;;;;;4893453;29;20052;-70
2021/07/26 21:37:58;;;;;;;4.15;2.88;;;;;;;;;;4896886;29;20056;-70
2021/07/26 21:40:24;;;;;;;5.82;2.90;;;;;;;;;;4890140;29;20057;-70
2021/07/26 21:42:51;;;;;;;4.85;2.80;;;;;;;;;;4891090;29;20092;-70
2021/07/26 21:45:18;;;;;;;6.60;2.70;;;;;;;;;;4897167;29;20080;-70
2021/07/26 21:47:47;;;;;;;6.63;2.92;;;;;;;;;;4878588;29;20104;-70
2021/07/26 21:50:14;;;;;;;6.13;3.30;;;;;;;;;;4878224;29;20060;-70
2021/07/26 21:52:40;;;;;;;5.03;2.78;;;;;;;;;;4877956;29;20481;-71
2021/07/26 21:55:07;;;;;;;5.75;2.80;;;;;;;;;;4878274;29;20100;-70
2021/07/26 21:57:34;;;;;;;7.97;2.83;;;;;;;;;;4878058;29;20057;-70
2021/07/26 22:00:02;;;;;;;5.28;2.88;;;;;;;;;;4879557;29;20096;-70
2021/07/26 22:02:28;;;;;;;8.48;3.65;;;;;;;;;;4895583;29;20071;-71
2021/07/26 22:04:55;;;;;;;9.00;3.65;;;;;;;;;;4896670;29;20484;-70
2021/07/26 22:07:21;;;;;;;4.35;2.90;;;;;;;;;;4896756;29;20641;-70
2021/07/26 22:09:48;;;;;;;4.05;3.10;;;;;;;;;;4894409;29;20048;-70
2021/07/26 22:12:15;;;;;;;6.20;2.60;;;;;;;;;;4877943;29;20501;-70
2021/07/26 22:14:42;;;;;;;8.02;3.13;;;;;;;;;;4879009;29;20491;-71
2021/07/26 22:17:09;;;;;;;4.60;3.22;;;;;;;;;;4896555;29;20512;-70
2021/07/26 22:19:35;;;;;;;8.10;3.05;;;;;;;;;;4896374;29;20104;-70
2021/07/26 22:22:02;;;;;;;4.93;2.50;;;;;;;;;;4896803;29;20084;-70
2021/07/26 22:24:29;;;;;;;6.13;2.63;;;;;;;;;;4893898;29;20477;-70
2021/07/26 22:26:55;;;;;;;4.55;2.88;;;;;;;;;;4877965;29;20682;-70
2021/07/26 22:29:22;;;;;;;4.88;2.90;;;;;;;;;;4879384;29;20088;-70
2021/07/26 22:31:48;;;;;;;6.68;3.20;;;;;;;;;;4884197;29;20516;-70
2021/07/26 22:34:15;;;;;;;6.70;3.10;;;;;;;;;;4880403;29;20544;-70
2021/07/26 22:36:42;;;;;;;6.35;3.65;;;;;;;;;;4890996;29;20079;-70
2021/07/26 22:39:08;;;;;;;4.85;3.08;;;;;;;;;;4881369;29;20088;-70
2021/07/26 22:41:35;;;;;;;7.28;3.30;;;;;;;;;;4894836;29;20088;-70
2021/07/26 22:44:01;;;;;;;4.35;3.00;;;;;;;;;;4900100;29;20101;-70
2021/07/26 22:46:28;;;;;;;5.00;3.05;;;;;;;;;;4900095;29;20512;-70
2021/07/26 22:48:55;;;;;;;6.22;3.28;;;;;;;;;;4899922;29;20519;-70
2021/07/26 22:51:25;;;;;;;5.93;3.65;;;;;;;;;;4899763;29;20057;-70
2021/07/26 22:53:51;;;;;;;4.05;3.45;;;;;;;;;;4899611;29;20393;-70
2021/07/26 22:56:18;;;;;;;5.63;3.70;;;;;;;;;;4893440;29;20351;-70
2021/07/26 22:58:47;;;;;;;4.43;3.30;;;;;;;;;;4880934;29;20080;-70
2021/07/26 23:01:13;;;;;;;4.70;3.15;;;;;;;;;;4891209;29;20107;-70
2021/07/26 23:03:40;;;;;;;5.57;3.40;;;;;;;;;;4899673;29;20091;-70
2021/07/26 23:06:07;;;;;;;8.27;3.53;;;;;;;;;;4881224;29;20501;-70
2021/07/26 23:08:34;;;;;;;5.38;3.15;;;;;;;;;;4880885;29;20077;-70
2021/07/26 23:11:00;;;;;;;5.68;3.40;;;;;;;;;;4881091;29;20065;-70
2021/07/26 23:13:27;;;;;;;4.97;3.35;;;;;;;;;;4880765;29;20124;-70
2021/07/26 23:15:54;;;;;;;5.22;3.58;;;;;;;;;;4891259;29;20056;-70
2021/07/26 23:18:20;;;;;;;7.57;3.75;;;;;;;;;;4899508;29;20067;-70
2021/07/26 23:20:47;;;;;;;5.35;2.80;;;;;;;;;;4889182;29;20081;-71
2021/07/26 23:23:13;;;;;;;6.57;3.40;;;;;;;;;;4880562;29;20531;-71
2021/07/26 23:25:41;;;;;;;7.75;3.88;;;;;;;;;;4880704;29;20137;-70
2021/07/26 23:28:08;;;;;;;8.73;3.53;;;;;;;;;;4880516;29;20536;-70
2021/07/26 23:30:34;;;;;;;4.68;3.13;;;;;;;;;;4880551;29;20092;-70
2021/07/26 23:33:01;;;;;;;8.82;4.18;;;;;;;;;;4884647;29;20131;-70
2021/07/26 23:35:28;;;;;;;6.78;3.78;;;;;;;;;;4880546;29;20108;-70
2021/07/26 23:37:54;;;;;;;9.13;4.20;;;;;;;;;;4892014;29;20112;-70
2021/07/26 23:40:21;;;;;;;11.98;4.60;;;;;;;;;;4899178;29;20491;-70
2021/07/26 23:42:47;;;;;;;7.25;4.07;;;;;;;;;;4888184;29;20099;-70
2021/07/26 23:45:14;;;;;;;8.20;4.00;;;;;;;;;;4879839;29;20132;-70
2021/07/26 23:47:40;;;;;;;6.85;4.68;;;;;;;;;;4880137;29;20099;-70
2021/07/26 23:50:08;;;;;;;6.63;4.35;;;;;;;;;;4884730;29;20393;-70
2021/07/26 23:52:34;;;;;;;6.00;4.20;;;;;;;;;;4898966;29;20091;-70
2021/07/26 23:55:01;;;;;;;6.53;4.47;;;;;;;;;;4898890;29;20088;-70
2021/07/26 23:57:27;;;;;;;9.98;4.95;;;;;;;;;;4898795;29;20061;-70
2021/07/26 23:59:54;;;;;;;6.18;4.25;;;;;;;;;;4885047;29;20053;-70
